Terminal Aerodrome Forecast
Issued by NWS Tulsa, OK

Home | Current Version | Previous Version | Text Only | Print | Product List | Glossary On
Versions: 1 2 3 4 5 6 7 8 9 10 11 12 13 14 15 16 17 18 19 20 21 22 23
000
FTUS44 KTSA 261123
TAFFSM
TAF
KFSM 261123Z 2612/2712 09006KT P6SM BKN025 WS020/18040KT
     FM261500 15008KT P6SM BKN035
     FM262000 15010G18KT P6SM VCTS BKN035CB
     FM270000 13007KT P6SM VCTS OVC050CB
     FM270800 09005KT 5SM -TSRA BKN025CB=

USA.gov is the U.S. government's official web portal to all federal, state and local government web resources and services.